sensor_id;sensor_type;location;lat;lon;timestamp;temperature;humidity
60033;DHT22;45905;50.570;10.428;2022-11-20T00:01:28;-3.90;94.50
60033;DHT22;45905;50.570;10.428;2022-11-20T00:03:57;-3.90;94.50
60033;DHT22;45905;50.570;10.428;2022-11-20T00:06:26;-3.90;94.70
60033;DHT22;45905;50.570;10.428;2022-11-20T00:08:56;-3.90;94.70
60033;DHT22;45905;50.570;10.428;2022-11-20T00:11:26;-4.00;94.60
60033;DHT22;45905;50.570;10.428;2022-11-20T00:13:56;-3.90;94.60
60033;DHT22;45905;50.570;10.428;2022-11-20T00:16:25;-4.00;94.50
60033;DHT22;45905;50.570;10.428;2022-11-20T00:18:54;-4.00;94.50
60033;DHT22;45905;50.570;10.428;2022-11-20T00:21:23;-4.00;94.50
60033;DHT22;45905;50.570;10.428;2022-11-20T00:23:54;-4.00;94.50
60033;DHT22;45905;50.570;10.428;2022-11-20T00:26:24;-4.10;94.60
60033;DHT22;45905;50.570;10.428;2022-11-20T00:28:59;-4.10;94.60
60033;DHT22;45905;50.570;10.428;2022-11-20T00:31:28;-4.10;94.40
60033;DHT22;45905;50.570;10.428;2022-11-20T00:33:56;-4.10;94.40
60033;DHT22;45905;50.570;10.428;2022-11-20T00:36:25;-4.20;94.50
60033;DHT22;45905;50.570;10.428;2022-11-20T00:38:55;-4.20;94.50
60033;DHT22;45905;50.570;10.428;2022-11-20T00:41:25;-4.20;94.40
60033;DHT22;45905;50.570;10.428;2022-11-20T00:43:55;-4.20;94.30
60033;DHT22;45905;50.570;10.428;2022-11-20T00:46:25;-4.20;94.30
60033;DHT22;45905;50.570;10.428;2022-11-20T00:48:53;-4.30;94.30
60033;DHT22;45905;50.570;10.428;2022-11-20T00:51:23;-4.30;94.20
60033;DHT22;45905;50.570;10.428;2022-11-20T00:53:51;-4.30;94.20
60033;DHT22;45905;50.570;10.428;2022-11-20T00:56:21;-4.40;94.20
60033;DHT22;45905;50.570;10.428;2022-11-20T00:58:49;-4.40;94.20
60033;DHT22;45905;50.570;10.428;2022-11-20T01:01:21;-4.40;94.20
60033;DHT22;45905;50.570;10.428;2022-11-20T01:03:54;-4.40;94.10
60033;DHT22;45905;50.570;10.428;2022-11-20T01:06:25;-4.50;94.10
60033;DHT22;45905;50.570;10.428;2022-11-20T01:09:06;-4.50;94.50
60033;DHT22;45905;50.570;10.428;2022-11-20T01:11:40;-4.50;94.80
60033;DHT22;45905;50.570;10.428;2022-11-20T01:14:15;-4.50;94.80
60033;DHT22;45905;50.570;10.428;2022-11-20T01:16:49;-4.50;94.80
60033;DHT22;45905;50.570;10.428;2022-11-20T01:19:22;-4.50;94.80
60033;DHT22;45905;50.570;10.428;2022-11-20T01:21:53;-4.50;94.80
60033;DHT22;45905;50.570;10.428;2022-11-20T01:24:22;-4.50;94.70
60033;DHT22;45905;50.570;10.428;2022-11-20T01:26:50;-4.60;94.70
60033;DHT22;45905;50.570;10.428;2022-11-20T01:29:23;-4.60;94.70
60033;DHT22;45905;50.570;10.428;2022-11-20T01:31:52;-4.60;94.70
60033;DHT22;45905;50.570;10.428;2022-11-20T01:34:21;-4.60;94.70
60033;DHT22;45905;50.570;10.428;2022-11-20T01:36:49;-4.60;94.70
60033;DHT22;45905;50.570;10.428;2022-11-20T01:39:20;-4.60;94.90
60033;DHT22;45905;50.570;10.428;2022-11-20T01:41:51;-4.60;95.00
60033;DHT22;45905;50.570;10.428;2022-11-20T01:47:36;-4.60;95.20
60033;DHT22;45905;50.570;10.428;2022-11-20T01:50:22;-4.70;95.30
60033;DHT22;45905;50.570;10.428;2022-11-20T01:53:00;-4.70;95.30
60033;DHT22;45905;50.570;10.428;2022-11-20T01:55:41;-4.70;95.20
60033;DHT22;45905;50.570;10.428;2022-11-20T01:58:13;-4.70;95.10
60033;DHT22;45905;50.570;10.428;2022-11-20T02:00:41;-4.80;94.90
60033;DHT22;45905;50.570;10.428;2022-11-20T02:03:14;-4.80;94.90
60033;DHT22;45905;50.570;10.428;2022-11-20T02:08:34;-4.80;94.80
60033;DHT22;45905;50.570;10.428;2022-11-20T02:11:02;-4.80;94.80
60033;DHT22;45905;50.570;10.428;2022-11-20T02:13:29;-4.80;94.90
60033;DHT22;45905;50.570;10.428;2022-11-20T02:16:29;-4.80;95.10
60033;DHT22;45905;50.570;10.428;2022-11-20T02:19:02;-4.80;95.20
60033;DHT22;45905;50.570;10.428;2022-11-20T02:22:02;-4.80;95.30
60033;DHT22;45905;50.570;10.428;2022-11-20T02:24:35;-4.80;95.20
60033;DHT22;45905;50.570;10.428;2022-11-20T02:27:06;-4.90;95.00
60033;DHT22;45905;50.570;10.428;2022-11-20T02:29:40;-4.90;95.00
60033;DHT22;45905;50.570;10.428;2022-11-20T02:32:21;-4.90;94.80
60033;DHT22;45905;50.570;10.428;2022-11-20T02:34:53;-4.90;94.90
60033;DHT22;45905;50.570;10.428;2022-11-20T02:37:21;-4.90;94.90
60033;DHT22;45905;50.570;10.428;2022-11-20T02:39:51;-4.90;94.90
60033;DHT22;45905;50.570;10.428;2022-11-20T02:42:18;-4.90;95.00
60033;DHT22;45905;50.570;10.428;2022-11-20T02:44:45;-4.90;95.00
60033;DHT22;45905;50.570;10.428;2022-11-20T02:47:13;-4.90;95.00
60033;DHT22;45905;50.570;10.428;2022-11-20T02:49:40;-4.90;95.00
60033;DHT22;45905;50.570;10.428;2022-11-20T02:52:07;-4.90;95.00
60033;DHT22;45905;50.570;10.428;2022-11-20T02:54:34;-4.90;95.00
60033;DHT22;45905;50.570;10.428;2022-11-20T02:57:01;-4.90;95.00
60033;DHT22;45905;50.570;10.428;2022-11-20T02:59:28;-4.90;95.00
60033;DHT22;45905;50.570;10.428;2022-11-20T03:01:55;-4.90;95.00
60033;DHT22;45905;50.570;10.428;2022-11-20T03:04:22;-4.90;94.90
60033;DHT22;45905;50.570;10.428;2022-11-20T03:06:49;-4.90;94.90
60033;DHT22;45905;50.570;10.428;2022-11-20T03:09:17;-4.90;94.90
60033;DHT22;45905;50.570;10.428;2022-11-20T03:11:44;-5.00;94.90
60033;DHT22;45905;50.570;10.428;2022-11-20T03:14:11;-5.00;95.10
60033;DHT22;45905;50.570;10.428;2022-11-20T03:16:38;-5.10;94.60
60033;DHT22;45905;50.570;10.428;2022-11-20T03:19:05;-5.20;94.80
60033;DHT22;45905;50.570;10.428;2022-11-20T03:21:33;-5.20;95.10
60033;DHT22;45905;50.570;10.428;2022-11-20T03:24:02;-5.30;95.20
60033;DHT22;45905;50.570;10.428;2022-11-20T03:26:29;-5.90;94.80
60033;DHT22;45905;50.570;10.428;2022-11-20T03:29:01;-5.30;94.90
60033;DHT22;45905;50.570;10.428;2022-11-20T03:31:33;-5.40;94.80
60033;DHT22;45905;50.570;10.428;2022-11-20T03:34:03;-5.40;94.90
60033;DHT22;45905;50.570;10.428;2022-11-20T03:36:31;-5.40;95.10
60033;DHT22;45905;50.570;10.428;2022-11-20T03:38:58;-5.40;95.10
60033;DHT22;45905;50.570;10.428;2022-11-20T03:41:28;-5.40;95.30
60033;DHT22;45905;50.570;10.428;2022-11-20T03:44:01;-5.40;95.30
60033;DHT22;45905;50.570;10.428;2022-11-20T03:46:30;-5.40;95.30
60033;DHT22;45905;50.570;10.428;2022-11-20T03:48:57;-5.30;95.30
60033;DHT22;45905;50.570;10.428;2022-11-20T03:51:31;-5.40;95.10
60033;DHT22;45905;50.570;10.428;2022-11-20T03:54:01;-5.40;95.10
60033;DHT22;45905;50.570;10.428;2022-11-20T03:56:35;-5.40;95.10
60033;DHT22;45905;50.570;10.428;2022-11-20T03:59:04;-5.40;95.30
60033;DHT22;45905;50.570;10.428;2022-11-20T04:01:34;-5.40;95.40
60033;DHT22;45905;50.570;10.428;2022-11-20T04:04:02;-5.40;95.50
60033;DHT22;45905;50.570;10.428;2022-11-20T04:06:34;-5.40;95.60
60033;DHT22;45905;50.570;10.428;2022-11-20T04:09:03;-5.30;95.60
60033;DHT22;45905;50.570;10.428;2022-11-20T04:11:32;-5.30;95.60
60033;DHT22;45905;50.570;10.428;2022-11-20T04:14:05;-5.30;95.50
60033;DHT22;45905;50.570;10.428;2022-11-20T04:16:38;-5.30;95.60
60033;DHT22;45905;50.570;10.428;2022-11-20T04:19:09;-5.30;95.70
60033;DHT22;45905;50.570;10.428;2022-11-20T04:21:38;-5.20;95.80
60033;DHT22;45905;50.570;10.428;2022-11-20T04:24:05;-5.20;95.90
60033;DHT22;45905;50.570;10.428;2022-11-20T04:26:34;-5.20;95.80
60033;DHT22;45905;50.570;10.428;2022-11-20T04:29:01;-5.30;95.90
60033;DHT22;45905;50.570;10.428;2022-11-20T04:31:32;-5.30;96.00
60033;DHT22;45905;50.570;10.428;2022-11-20T04:34:02;-5.30;96.20
60033;DHT22;45905;50.570;10.428;2022-11-20T04:36:31;-5.30;96.40
60033;DHT22;45905;50.570;10.428;2022-11-20T04:39:01;-5.20;96.50
60033;DHT22;45905;50.570;10.428;2022-11-20T04:41:32;-5.20;96.50
60033;DHT22;45905;50.570;10.428;2022-11-20T04:44:03;-5.20;96.30
60033;DHT22;45905;50.570;10.428;2022-11-20T04:46:39;-5.20;96.40
60033;DHT22;45905;50.570;10.428;2022-11-20T04:49:08;-5.10;96.50
60033;DHT22;45905;50.570;10.428;2022-11-20T04:51:37;-5.10;96.50
60033;DHT22;45905;50.570;10.428;2022-11-20T04:54:04;-5.10;96.50
60033;DHT22;45905;50.570;10.428;2022-11-20T04:56:31;-5.00;96.70
60033;DHT22;45905;50.570;10.428;2022-11-20T04:59:02;-5.00;96.70
60033;DHT22;45905;50.570;10.428;2022-11-20T05:01:30;-4.40;96.90
60033;DHT22;45905;50.570;10.428;2022-11-20T05:03:57;-4.90;96.60
60033;DHT22;45905;50.570;10.428;2022-11-20T05:06:24;-5.00;96.50
60033;DHT22;45905;50.570;10.428;2022-11-20T05:08:51;-5.00;96.40
60033;DHT22;45905;50.570;10.428;2022-11-20T05:11:20;-5.00;96.50
60033;DHT22;45905;50.570;10.428;2022-11-20T05:13:48;-5.00;96.60
60033;DHT22;45905;50.570;10.428;2022-11-20T05:16:21;-5.00;96.70
60033;DHT22;45905;50.570;10.428;2022-11-20T05:18:52;-4.90;96.90
60033;DHT22;45905;50.570;10.428;2022-11-20T05:21:21;-4.90;97.00
60033;DHT22;45905;50.570;10.428;2022-11-20T05:23:49;-5.60;96.70
60033;DHT22;45905;50.570;10.428;2022-11-20T05:26:18;-4.80;97.20
60033;DHT22;45905;50.570;10.428;2022-11-20T05:28:48;-4.50;97.50
60033;DHT22;45905;50.570;10.428;2022-11-20T05:31:22;-4.80;97.50
60033;DHT22;45905;50.570;10.428;2022-11-20T05:33:55;-4.80;97.60
60033;DHT22;45905;50.570;10.428;2022-11-20T05:36:24;-4.80;97.60
60033;DHT22;45905;50.570;10.428;2022-11-20T05:38:51;-4.80;97.80
60033;DHT22;45905;50.570;10.428;2022-11-20T05:41:25;-4.70;97.90
60033;DHT22;45905;50.570;10.428;2022-11-20T05:43:52;-4.70;97.80
60033;DHT22;45905;50.570;10.428;2022-11-20T05:46:20;-4.70;97.70
60033;DHT22;45905;50.570;10.428;2022-11-20T05:48:54;-4.80;97.60
60033;DHT22;45905;50.570;10.428;2022-11-20T05:51:22;-4.80;97.70
60033;DHT22;45905;50.570;10.428;2022-11-20T05:53:50;-4.80;97.90
60033;DHT22;45905;50.570;10.428;2022-11-20T05:56:19;-4.80;97.90
60033;DHT22;45905;50.570;10.428;2022-11-20T05:58:48;-4.80;98.00
60033;DHT22;45905;50.570;10.428;2022-11-20T06:01:23;-4.80;98.10
60033;DHT22;45905;50.570;10.428;2022-11-20T06:03:53;-4.70;98.20
60033;DHT22;45905;50.570;10.428;2022-11-20T06:06:21;-4.70;98.20
60033;DHT22;45905;50.570;10.428;2022-11-20T06:08:49;-4.70;98.20
60033;DHT22;45905;50.570;10.428;2022-11-20T06:11:17;-4.70;98.20
60033;DHT22;45905;50.570;10.428;2022-11-20T06:13:45;-4.70;98.30
60033;DHT22;45905;50.570;10.428;2022-11-20T06:16:16;-3.40;98.90
60033;DHT22;45905;50.570;10.428;2022-11-20T06:18:46;-4.60;98.40
60033;DHT22;45905;50.570;10.428;2022-11-20T06:21:16;-4.60;98.50
60033;DHT22;45905;50.570;10.428;2022-11-20T06:23:44;-4.60;98.60
60033;DHT22;45905;50.570;10.428;2022-11-20T06:26:24;-4.60;98.60
60033;DHT22;45905;50.570;10.428;2022-11-20T06:28:54;-4.50;98.70
60033;DHT22;45905;50.570;10.428;2022-11-20T06:31:24;-4.50;98.80
60033;DHT22;45905;50.570;10.428;2022-11-20T06:33:52;-4.40;98.80
60033;DHT22;45905;50.570;10.428;2022-11-20T06:36:21;-4.40;98.80
60033;DHT22;45905;50.570;10.428;2022-11-20T06:38:49;-4.40;98.80
60033;DHT22;45905;50.570;10.428;2022-11-20T06:41:19;-4.40;98.80
60033;DHT22;45905;50.570;10.428;2022-11-20T06:43:48;-4.10;99.00
60033;DHT22;45905;50.570;10.428;2022-11-20T06:46:16;-4.40;99.00
60033;DHT22;45905;50.570;10.428;2022-11-20T06:48:45;-4.30;99.10
60033;DHT22;45905;50.570;10.428;2022-11-20T06:51:13;-4.30;99.30
60033;DHT22;45905;50.570;10.428;2022-11-20T06:53:40;-4.20;99.40
60033;DHT22;45905;50.570;10.428;2022-11-20T06:56:07;-4.20;99.60
60033;DHT22;45905;50.570;10.428;2022-11-20T06:58:35;-4.10;99.30
60033;DHT22;45905;50.570;10.428;2022-11-20T07:01:09;-4.20;99.20
60033;DHT22;45905;50.570;10.428;2022-11-20T07:03:38;-4.20;99.20
60033;DHT22;45905;50.570;10.428;2022-11-20T07:06:06;-4.20;99.20
60033;DHT22;45905;50.570;10.428;2022-11-20T07:08:33;-4.20;99.30
60033;DHT22;45905;50.570;10.428;2022-11-20T07:11:04;-3.50;99.70
60033;DHT22;45905;50.570;10.428;2022-11-20T07:13:32;-3.50;99.70
60033;DHT22;45905;50.570;10.428;2022-11-20T07:16:01;-4.10;99.50
60033;DHT22;45905;50.570;10.428;2022-11-20T07:18:30;-4.10;99.50
60033;DHT22;45905;50.570;10.428;2022-11-20T07:21:01;-3.80;99.70
60033;DHT22;45905;50.570;10.428;2022-11-20T07:23:29;-4.00;99.60
60033;DHT22;45905;50.570;10.428;2022-11-20T07:25:56;-3.90;99.90
60033;DHT22;45905;50.570;10.428;2022-11-20T07:28:23;-3.80;99.90
60033;DHT22;45905;50.570;10.428;2022-11-20T07:30:52;-3.60;99.90
60033;DHT22;45905;50.570;10.428;2022-11-20T07:33:20;-3.90;99.90
60033;DHT22;45905;50.570;10.428;2022-11-20T07:35:47;-3.80;99.90
60033;DHT22;45905;50.570;10.428;2022-11-20T07:38:14;-3.90;99.90
60033;DHT22;45905;50.570;10.428;2022-11-20T07:40:41;-3.80;99.90
60033;DHT22;45905;50.570;10.428;2022-11-20T07:43:08;-3.90;99.90
60033;DHT22;45905;50.570;10.428;2022-11-20T07:45:36;-3.80;99.90
60033;DHT22;45905;50.570;10.428;2022-11-20T07:48:03;-4.30;99.90
60033;DHT22;45905;50.570;10.428;2022-11-20T07:50:30;-3.50;99.90
60033;DHT22;45905;50.570;10.428;2022-11-20T07:53:04;-3.70;99.90
60033;DHT22;45905;50.570;10.428;2022-11-20T07:55:32;-3.40;99.90
60033;DHT22;45905;50.570;10.428;2022-11-20T07:57:59;-3.70;99.90
60033;DHT22;45905;50.570;10.428;2022-11-20T08:00:27;-3.70;99.90
60033;DHT22;45905;50.570;10.428;2022-11-20T08:02:54;-3.70;99.90
60033;DHT22;45905;50.570;10.428;2022-11-20T08:05:21;-3.50;99.90
60033;DHT22;45905;50.570;10.428;2022-11-20T08:10:16;-3.40;99.90
60033;DHT22;45905;50.570;10.428;2022-11-20T08:12:48;-3.50;99.90
60033;DHT22;45905;50.570;10.428;2022-11-20T08:15:36;-3.50;99.90
60033;DHT22;45905;50.570;10.428;2022-11-20T08:18:07;-3.40;99.90
60033;DHT22;45905;50.570;10.428;2022-11-20T08:20:55;-3.40;99.90
60033;DHT22;45905;50.570;10.428;2022-11-20T08:23:23;-3.30;99.90
60033;DHT22;45905;50.570;10.428;2022-11-20T08:25:50;-3.60;99.90
60033;DHT22;45905;50.570;10.428;2022-11-20T08:28:18;-3.40;99.90
60033;DHT22;45905;50.570;10.428;2022-11-20T08:30:47;-3.40;99.90
60033;DHT22;45905;50.570;10.428;2022-11-20T08:33:17;-3.30;99.90
60033;DHT22;45905;50.570;10.428;2022-11-20T08:35:45;-3.10;99.90
60033;DHT22;45905;50.570;10.428;2022-11-20T08:38:12;-3.30;99.90
60033;DHT22;45905;50.570;10.428;2022-11-20T08:40:39;-2.80;99.90
60033;DHT22;45905;50.570;10.428;2022-11-20T08:43:06;-3.20;99.90
60033;DHT22;45905;50.570;10.428;2022-11-20T08:45:33;-3.20;99.90
60033;DHT22;45905;50.570;10.428;2022-11-20T08:48:02;-3.20;99.90
60033;DHT22;45905;50.570;10.428;2022-11-20T08:50:30;-3.10;99.90
60033;DHT22;45905;50.570;10.428;2022-11-20T08:53:06;-3.20;99.90
60033;DHT22;45905;50.570;10.428;2022-11-20T08:55:33;-3.10;99.90
60033;DHT22;45905;50.570;10.428;2022-11-20T08:58:06;-3.10;99.90
60033;DHT22;45905;50.570;10.428;2022-11-20T09:00:34;-3.10;99.90
60033;DHT22;45905;50.570;10.428;2022-11-20T09:03:01;-3.00;99.90
60033;DHT22;45905;50.570;10.428;2022-11-20T09:05:29;-3.00;99.90
60033;DHT22;45905;50.570;10.428;2022-11-20T09:07:57;-2.80;99.90
60033;DHT22;45905;50.570;10.428;2022-11-20T09:10:28;-2.40;99.90
60033;DHT22;45905;50.570;10.428;2022-11-20T09:12:55;-3.00;99.90
60033;DHT22;45905;50.570;10.428;2022-11-20T09:15:23;-2.90;99.90
60033;DHT22;45905;50.570;10.428;2022-11-20T09:17:56;-2.90;99.90
60033;DHT22;45905;50.570;10.428;2022-11-20T09:20:26;-2.90;99.90
60033;DHT22;45905;50.570;10.428;2022-11-20T09:22:55;-2.90;99.90
60033;DHT22;45905;50.570;10.428;2022-11-20T09:25:23;-1.60;99.90
60033;DHT22;45905;50.570;10.428;2022-11-20T09:27:58;-2.80;99.90
60033;DHT22;45905;50.570;10.428;2022-11-20T09:30:26;-2.80;99.90
60033;DHT22;45905;50.570;10.428;2022-11-20T09:32:53;-2.70;99.90
60033;DHT22;45905;50.570;10.428;2022-11-20T09:35:21;-2.60;99.90
60033;DHT22;45905;50.570;10.428;2022-11-20T09:37:48;-2.40;99.90
60033;DHT22;45905;50.570;10.428;2022-11-20T09:40:24;-2.50;99.90
60033;DHT22;45905;50.570;10.428;2022-11-20T09:42:58;-2.40;99.90
60033;DHT22;45905;50.570;10.428;2022-11-20T09:54:17;-2.30;99.90
60033;DHT22;45905;50.570;10.428;2022-11-20T09:56:51;-2.30;99.90
60033;DHT22;45905;50.570;10.428;2022-11-20T10:02:53;-2.10;99.90
60033;DHT22;45905;50.570;10.428;2022-11-20T10:05:30;-2.10;99.90
60033;DHT22;45905;50.570;10.428;2022-11-20T10:10:49;-2.10;99.90
60033;DHT22;45905;50.570;10.428;2022-11-20T10:30:10;-1.90;99.90
60033;DHT22;45905;50.570;10.428;2022-11-20T10:32:47;-1.90;99.90
60033;DHT22;45905;50.570;10.428;2022-11-20T10:35:39;-1.90;99.90
60033;DHT22;45905;50.570;10.428;2022-11-20T10:38:16;-1.80;99.90
60033;DHT22;45905;50.570;10.428;2022-11-20T10:41:07;-1.70;99.90
60033;DHT22;45905;50.570;10.428;2022-11-20T10:44:19;-1.70;99.90
60033;DHT22;45905;50.570;10.428;2022-11-20T10:47:16;-1.60;99.90
60033;DHT22;45905;50.570;10.428;2022-11-20T10:49:48;-1.60;99.90
60033;DHT22;45905;50.570;10.428;2022-11-20T10:52:37;-1.60;99.90
60033;DHT22;45905;50.570;10.428;2022-11-20T11:01:14;-1.60;99.90
60033;DHT22;45905;50.570;10.428;2022-11-20T11:03:44;-1.60;99.90
60033;DHT22;45905;50.570;10.428;2022-11-20T11:09:12;-1.40;99.90
60033;DHT22;45905;50.570;10.428;2022-11-20T11:11:43;-1.40;99.90
60033;DHT22;45905;50.570;10.428;2022-11-20T11:14:13;-1.40;99.90
60033;DHT22;45905;50.570;10.428;2022-11-20T11:16:53;-1.30;99.90
60033;DHT22;45905;50.570;10.428;2022-11-20T11:19:22;-1.30;99.90
60033;DHT22;45905;50.570;10.428;2022-11-20T11:21:59;-1.20;99.90
60033;DHT22;45905;50.570;10.428;2022-11-20T11:24:28;-1.20;99.90
60033;DHT22;45905;50.570;10.428;2022-11-20T11:27:13;-1.10;99.90
60033;DHT22;45905;50.570;10.428;2022-11-20T11:29:45;-1.20;99.90
60033;DHT22;45905;50.570;10.428;2022-11-20T11:32:15;-1.10;99.90
60033;DHT22;45905;50.570;10.428;2022-11-20T11:35:18;-1.00;99.90
60033;DHT22;45905;50.570;10.428;2022-11-20T11:38:02;-1.00;99.90
60033;DHT22;45905;50.570;10.428;2022-11-20T11:40:33;-0.90;99.90
60033;DHT22;45905;50.570;10.428;2022-11-20T11:43:05;-0.90;99.90
60033;DHT22;45905;50.570;10.428;2022-11-20T11:57:26;-0.80;99.90
60033;DHT22;45905;50.570;10.428;2022-11-20T12:00:13;-0.80;99.90
60033;DHT22;45905;50.570;10.428;2022-11-20T12:05:43;-0.80;99.90
60033;DHT22;45905;50.570;10.428;2022-11-20T12:08:27;-0.80;99.90
60033;DHT22;45905;50.570;10.428;2022-11-20T12:11:04;-0.80;99.90
60033;DHT22;45905;50.570;10.428;2022-11-20T12:13:55;-0.70;99.90
60033;DHT22;45905;50.570;10.428;2022-11-20T12:16:32;-0.70;99.90
60033;DHT22;45905;50.570;10.428;2022-11-20T12:19:12;-0.70;99.90
60033;DHT22;45905;50.570;10.428;2022-11-20T12:30:33;-0.50;99.90
60033;DHT22;45905;50.570;10.428;2022-11-20T12:37:11;-0.40;99.90
60033;DHT22;45905;50.570;10.428;2022-11-20T12:39:58;-0.40;99.90
60033;DHT22;45905;50.570;10.428;2022-11-20T12:42:46;-0.40;99.90
60033;DHT22;45905;50.570;10.428;2022-11-20T12:48:59;-0.30;99.90
60033;DHT22;45905;50.570;10.428;2022-11-20T13:01:20;-0.20;99.90
60033;DHT22;45905;50.570;10.428;2022-11-20T13:07:13;-0.20;99.90
60033;DHT22;45905;50.570;10.428;2022-11-20T13:09:46;-0.20;99.90
60033;DHT22;45905;50.570;10.428;2022-11-20T13:12:24;-0.20;99.90
60033;DHT22;45905;50.570;10.428;2022-11-20T13:18:02;-0.20;99.90
60033;DHT22;45905;50.570;10.428;2022-11-20T13:20:33;-0.20;99.90
60033;DHT22;45905;50.570;10.428;2022-11-20T13:23:01;-0.20;99.90
60033;DHT22;45905;50.570;10.428;2022-11-20T13:25:34;-0.20;99.90
60033;DHT22;45905;50.570;10.428;2022-11-20T13:30:59;-0.20;99.90
60033;DHT22;45905;50.570;10.428;2022-11-20T13:33:30;-0.20;99.90
60033;DHT22;45905;50.570;10.428;2022-11-20T13:36:19;-0.20;99.90
60033;DHT22;45905;50.570;10.428;2022-11-20T13:38:53;0.00;99.90
60033;DHT22;45905;50.570;10.428;2022-11-20T13:41:30;0.00;99.90
60033;DHT22;45905;50.570;10.428;2022-11-20T13:44:14;0.00;99.90
60033;DHT22;45905;50.570;10.428;2022-11-20T13:46:51;0.00;99.90
60033;DHT22;45905;50.570;10.428;2022-11-20T14:01:19;0.00;99.90
60033;DHT22;45905;50.570;10.428;2022-11-20T14:03:52;0.00;99.90
60033;DHT22;45905;50.570;10.428;2022-11-20T14:06:44;0.00;99.90
60033;DHT22;45905;50.570;10.428;2022-11-20T14:09:26;0.10;99.90
60033;DHT22;45905;50.570;10.428;2022-11-20T14:11:55;0.10;99.90
60033;DHT22;45905;50.570;10.428;2022-11-20T14:14:25;0.10;99.90
60033;DHT22;45905;50.570;10.428;2022-11-20T14:17:08;0.10;99.90
60033;DHT22;45905;50.570;10.428;2022-11-20T14:19:46;0.20;99.90
60033;DHT22;45905;50.570;10.428;2022-11-20T14:22:22;0.20;99.90
60033;DHT22;45905;50.570;10.428;2022-11-20T14:27:41;0.20;99.90
60033;DHT22;45905;50.570;10.428;2022-11-20T14:30:22;0.30;99.90
60033;DHT22;45905;50.570;10.428;2022-11-20T14:32:51;0.20;99.90
60033;DHT22;45905;50.570;10.428;2022-11-20T14:35:25;0.20;99.90
60033;DHT22;45905;50.570;10.428;2022-11-20T14:37:55;0.20;99.90
60033;DHT22;45905;50.570;10.428;2022-11-20T14:42:58;0.30;99.90
60033;DHT22;45905;50.570;10.428;2022-11-20T14:45:26;0.40;99.90
60033;DHT22;45905;50.570;10.428;2022-11-20T14:47:56;0.30;99.90
60033;DHT22;45905;50.570;10.428;2022-11-20T14:50:25;0.30;99.90
60033;DHT22;45905;50.570;10.428;2022-11-20T14:52:56;0.20;99.90
60033;DHT22;45905;50.570;10.428;2022-11-20T14:58:02;0.10;99.90
60033;DHT22;45905;50.570;10.428;2022-11-20T15:00:34;0.20;99.90
60033;DHT22;45905;50.570;10.428;2022-11-20T15:03:02;0.20;99.90
60033;DHT22;45905;50.570;10.428;2022-11-20T15:05:47;0.20;99.90
60033;DHT22;45905;50.570;10.428;2022-11-20T15:08:16;0.20;99.90
60033;DHT22;45905;50.570;10.428;2022-11-20T15:10:51;0.20;99.90
60033;DHT22;45905;50.570;10.428;2022-11-20T15:13:40;0.20;99.90
60033;DHT22;45905;50.570;10.428;2022-11-20T15:16:33;0.20;99.90
60033;DHT22;45905;50.570;10.428;2022-11-20T15:19:02;0.20;99.90
60033;DHT22;45905;50.570;10.428;2022-11-20T15:21:34;0.10;99.90
60033;DHT22;45905;50.570;10.428;2022-11-20T15:24:01;0.30;99.90
60033;DHT22;45905;50.570;10.428;2022-11-20T15:26:29;0.20;99.90
60033;DHT22;45905;50.570;10.428;2022-11-20T15:28:56;0.20;99.90
60033;DHT22;45905;50.570;10.428;2022-11-20T15:31:23;0.30;99.90
60033;DHT22;45905;50.570;10.428;2022-11-20T15:33:51;0.30;99.90
60033;DHT22;45905;50.570;10.428;2022-11-20T15:36:18;0.30;99.90
60033;DHT22;45905;50.570;10.428;2022-11-20T15:38:45;0.30;99.90
60033;DHT22;45905;50.570;10.428;2022-11-20T15:41:13;0.30;99.90
60033;DHT22;45905;50.570;10.428;2022-11-20T15:43:40;0.30;99.90
60033;DHT22;45905;50.570;10.428;2022-11-20T15:46:13;0.30;99.90
60033;DHT22;45905;50.570;10.428;2022-11-20T15:48:51;0.30;99.90
60033;DHT22;45905;50.570;10.428;2022-11-20T15:51:27;0.30;99.90
60033;DHT22;45905;50.570;10.428;2022-11-20T15:54:22;0.30;99.90
60033;DHT22;45905;50.570;10.428;2022-11-20T15:56:50;0.30;99.90
60033;DHT22;45905;50.570;10.428;2022-11-20T15:59:20;0.30;99.90
60033;DHT22;45905;50.570;10.428;2022-11-20T16:01:47;0.30;99.90
60033;DHT22;45905;50.570;10.428;2022-11-20T16:04:16;0.30;99.90
60033;DHT22;45905;50.570;10.428;2022-11-20T16:06:43;0.30;99.90
60033;DHT22;45905;50.570;10.428;2022-11-20T16:09:10;0.40;99.90
60033;DHT22;45905;50.570;10.428;2022-11-20T16:11:38;0.40;99.90
60033;DHT22;45905;50.570;10.428;2022-11-20T16:14:06;0.40;99.90
60033;DHT22;45905;50.570;10.428;2022-11-20T16:16:55;0.50;99.90
60033;DHT22;45905;50.570;10.428;2022-11-20T16:19:22;0.50;99.90
60033;DHT22;45905;50.570;10.428;2022-11-20T16:21:49;0.50;99.90
60033;DHT22;45905;50.570;10.428;2022-11-20T16:24:16;0.40;99.90
60033;DHT22;45905;50.570;10.428;2022-11-20T16:26:43;0.40;99.90
60033;DHT22;45905;50.570;10.428;2022-11-20T16:29:11;0.40;99.90
60033;DHT22;45905;50.570;10.428;2022-11-20T16:31:38;0.40;99.90
60033;DHT22;45905;50.570;10.428;2022-11-20T16:34:07;0.40;99.90
60033;DHT22;45905;50.570;10.428;2022-11-20T16:36:42;0.40;99.90
60033;DHT22;45905;50.570;10.428;2022-11-20T16:39:12;0.40;99.90
60033;DHT22;45905;50.570;10.428;2022-11-20T16:41:44;0.40;99.90
60033;DHT22;45905;50.570;10.428;2022-11-20T16:44:12;0.40;99.90
60033;DHT22;45905;50.570;10.428;2022-11-20T16:46:39;0.40;99.90
60033;DHT22;45905;50.570;10.428;2022-11-20T16:49:12;0.30;99.90
60033;DHT22;45905;50.570;10.428;2022-11-20T16:51:40;0.40;99.90
60033;DHT22;45905;50.570;10.428;2022-11-20T16:54:09;0.40;99.90
60033;DHT22;45905;50.570;10.428;2022-11-20T16:56:40;0.40;99.90
60033;DHT22;45905;50.570;10.428;2022-11-20T16:59:08;0.40;99.90
60033;DHT22;45905;50.570;10.428;2022-11-20T17:01:36;0.40;99.90
60033;DHT22;45905;50.570;10.428;2022-11-20T17:04:06;0.40;99.90
60033;DHT22;45905;50.570;10.428;2022-11-20T17:06:35;0.50;99.90
60033;DHT22;45905;50.570;10.428;2022-11-20T17:09:04;0.40;99.90
60033;DHT22;45905;50.570;10.428;2022-11-20T17:11:35;0.40;99.90
60033;DHT22;45905;50.570;10.428;2022-11-20T17:14:03;0.50;99.90
60033;DHT22;45905;50.570;10.428;2022-11-20T17:16:30;0.40;99.90
60033;DHT22;45905;50.570;10.428;2022-11-20T17:18:58;0.40;99.90
60033;DHT22;45905;50.570;10.428;2022-11-20T17:21:30;0.40;99.90
60033;DHT22;45905;50.570;10.428;2022-11-20T17:24:00;0.30;99.90
60033;DHT22;45905;50.570;10.428;2022-11-20T17:26:32;0.30;99.90
60033;DHT22;45905;50.570;10.428;2022-11-20T17:29:06;0.30;99.90
60033;DHT22;45905;50.570;10.428;2022-11-20T17:31:37;0.40;99.90
60033;DHT22;45905;50.570;10.428;2022-11-20T17:34:06;0.40;99.90
60033;DHT22;45905;50.570;10.428;2022-11-20T17:36:37;0.40;99.90
60033;DHT22;45905;50.570;10.428;2022-11-20T17:39:12;0.40;99.90
60033;DHT22;45905;50.570;10.428;2022-11-20T17:41:41;0.40;99.90
60033;DHT22;45905;50.570;10.428;2022-11-20T17:44:09;0.40;99.90
60033;DHT22;45905;50.570;10.428;2022-11-20T17:46:38;0.40;99.90